sensor_id;sensor_type;location;lat;lon;timestamp;pressure;altitude;pressure_sealevel;temperature;humidity
60918;BME280;46792;38.854;-9.384;2023-04-07T00:00:44;99248.09;;;15.99;56.65
60918;BME280;46792;38.854;-9.384;2023-04-07T00:02:45;99246.22;;;16.00;55.65
60918;BME280;46792;38.854;-9.384;2023-04-07T00:04:46;99247.00;;;16.00;56.22
60918;BME280;46792;38.854;-9.384;2023-04-07T00:06:46;99232.41;;;15.96;55.50
60918;BME280;46792;38.854;-9.384;2023-04-07T00:08:47;99240.88;;;15.94;55.52
60918;BME280;46792;38.854;-9.384;2023-04-07T00:10:48;99236.84;;;15.92;55.47
60918;BME280;46792;38.854;-9.384;2023-04-07T00:12:48;99237.66;;;15.92;55.06
60918;BME280;46792;38.854;-9.384;2023-04-07T00:14:49;99231.53;;;15.87;54.83
60918;BME280;46792;38.854;-9.384;2023-04-07T00:17:08;99239.25;;;15.93;54.53
60918;BME280;46792;38.854;-9.384;2023-04-07T00:19:27;99234.94;;;15.92;54.62
60918;BME280;46792;38.854;-9.384;2023-04-07T00:21:27;99227.25;;;15.94;54.59
60918;BME280;46792;38.854;-9.384;2023-04-07T00:28:45;99235.50;;;16.03;54.36
60918;BME280;46792;38.854;-9.384;2023-04-07T00:30:45;99225.72;;;16.02;54.16
60918;BME280;46792;38.854;-9.384;2023-04-07T00:32:46;99219.78;;;16.00;54.17
60918;BME280;46792;38.854;-9.384;2023-04-07T00:34:46;99234.50;;;15.99;53.91
60918;BME280;46792;38.854;-9.384;2023-04-07T00:37:06;99223.09;;;15.97;53.93
60918;BME280;46792;38.854;-9.384;2023-04-07T00:39:06;99217.66;;;15.97;53.49
60918;BME280;46792;38.854;-9.384;2023-04-07T00:41:07;99218.47;;;15.98;53.10
60918;BME280;46792;38.854;-9.384;2023-04-07T00:43:08;99219.59;;;15.96;53.09
60918;BME280;46792;38.854;-9.384;2023-04-07T00:45:09;99214.47;;;15.95;52.60
60918;BME280;46792;38.854;-9.384;2023-04-07T00:47:11;99211.53;;;15.91;52.24
60918;BME280;46792;38.854;-9.384;2023-04-07T00:49:11;99209.03;;;15.95;52.11
60918;BME280;46792;38.854;-9.384;2023-04-07T00:51:12;99202.25;;;15.92;52.05
60918;BME280;46792;38.854;-9.384;2023-04-07T00:53:14;99204.69;;;15.94;51.38
60918;BME280;46792;38.854;-9.384;2023-04-07T00:55:15;99205.66;;;15.98;51.25
60918;BME280;46792;38.854;-9.384;2023-04-07T00:57:16;99197.81;;;15.96;51.47
60918;BME280;46792;38.854;-9.384;2023-04-07T00:59:35;99195.59;;;15.99;51.21
60918;BME280;46792;38.854;-9.384;2023-04-07T01:01:45;99196.38;;;15.99;51.10
60918;BME280;46792;38.854;-9.384;2023-04-07T01:03:57;99190.94;;;15.99;50.76
60918;BME280;46792;38.854;-9.384;2023-04-07T01:06:01;99191.44;;;16.01;50.74
60918;BME280;46792;38.854;-9.384;2023-04-07T01:10:20;99176.72;;;16.02;50.08
60918;BME280;46792;38.854;-9.384;2023-04-07T01:12:53;99180.31;;;16.11;49.66
60918;BME280;46792;38.854;-9.384;2023-04-07T01:14:59;99184.34;;;16.14;49.60
60918;BME280;46792;38.854;-9.384;2023-04-07T01:17:27;99175.34;;;16.14;49.57
60918;BME280;46792;38.854;-9.384;2023-04-07T01:20:06;99166.56;;;16.17;49.29
60918;BME280;46792;38.854;-9.384;2023-04-07T01:22:12;99171.88;;;16.22;49.17
60918;BME280;46792;38.854;-9.384;2023-04-07T01:25:01;99175.09;;;16.24;49.15
60918;BME280;46792;38.854;-9.384;2023-04-07T01:27:35;99164.06;;;16.29;49.42
60918;BME280;46792;38.854;-9.384;2023-04-07T01:29:41;99162.03;;;16.35;49.31
60918;BME280;46792;38.854;-9.384;2023-04-07T01:31:49;99163.50;;;16.41;48.61
60918;BME280;46792;38.854;-9.384;2023-04-07T01:33:54;99160.94;;;16.45;48.32
60918;BME280;46792;38.854;-9.384;2023-04-07T01:35:58;99166.25;;;16.50;48.43
60918;BME280;46792;38.854;-9.384;2023-04-07T01:38:02;99160.31;;;16.48;48.54
60918;BME280;46792;38.854;-9.384;2023-04-07T01:40:06;99171.72;;;16.50;48.53
60918;BME280;46792;38.854;-9.384;2023-04-07T01:42:07;99158.22;;;16.45;48.30
60918;BME280;46792;38.854;-9.384;2023-04-07T01:44:09;99159.53;;;16.47;48.13
60918;BME280;46792;38.854;-9.384;2023-04-07T01:46:10;99158.41;;;16.48;48.11
60918;BME280;46792;38.854;-9.384;2023-04-07T01:48:29;99157.91;;;16.46;47.99
60918;BME280;46792;38.854;-9.384;2023-04-07T01:50:30;99158.72;;;16.47;47.77
60918;BME280;46792;38.854;-9.384;2023-04-07T01:52:32;99156.63;;;16.44;47.73
60918;BME280;46792;38.854;-9.384;2023-04-07T01:54:34;99158.22;;;16.45;47.69
60918;BME280;46792;38.854;-9.384;2023-04-07T01:56:36;99160.16;;;16.44;47.65
60918;BME280;46792;38.854;-9.384;2023-04-07T01:58:39;99155.81;;;16.43;47.76
60918;BME280;46792;38.854;-9.384;2023-04-07T02:00:42;99158.22;;;16.45;47.43
60918;BME280;46792;38.854;-9.384;2023-04-07T02:02:51;99159.03;;;16.45;47.68
60918;BME280;46792;38.854;-9.384;2023-04-07T02:05:03;99158.88;;;16.41;47.66
60918;BME280;46792;38.854;-9.384;2023-04-07T02:07:14;99156.25;;;16.36;47.92
60918;BME280;46792;38.854;-9.384;2023-04-07T02:09:23;99152.88;;;16.31;47.92
60918;BME280;46792;38.854;-9.384;2023-04-07T02:11:28;99150.88;;;16.22;48.01
60918;BME280;46792;38.854;-9.384;2023-04-07T02:13:36;99159.00;;;16.14;47.98
60918;BME280;46792;38.854;-9.384;2023-04-07T02:15:38;99159.16;;;16.08;47.94
60918;BME280;46792;38.854;-9.384;2023-04-07T02:17:42;99167.94;;;16.05;48.14
60918;BME280;46792;38.854;-9.384;2023-04-07T02:19:45;99162.00;;;16.03;47.65
60918;BME280;46792;38.854;-9.384;2023-04-07T02:21:47;99155.44;;;16.04;47.28
60918;BME280;46792;38.854;-9.384;2023-04-07T02:23:50;99154.63;;;16.04;47.69
60918;BME280;46792;38.854;-9.384;2023-04-07T02:25:51;99165.72;;;16.07;47.39
60918;BME280;46792;38.854;-9.384;2023-04-07T02:27:57;99156.09;;;16.10;47.12
60918;BME280;46792;38.854;-9.384;2023-04-07T02:29:58;99159.00;;;16.14;46.68
60918;BME280;46792;38.854;-9.384;2023-04-07T02:31:59;99157.28;;;16.18;46.28
60918;BME280;46792;38.854;-9.384;2023-04-07T02:34:04;99165.31;;;16.23;45.88
60918;BME280;46792;38.854;-9.384;2023-04-07T02:36:06;99156.22;;;16.27;45.33
60918;BME280;46792;38.854;-9.384;2023-04-07T02:38:06;99157.69;;;16.34;44.82
60918;BME280;46792;38.854;-9.384;2023-04-07T02:40:09;99150.03;;;16.36;44.71
60918;BME280;46792;38.854;-9.384;2023-04-07T02:42:10;99150.03;;;16.45;44.53
60918;BME280;46792;38.854;-9.384;2023-04-07T02:44:10;99154.56;;;16.49;43.98
60918;BME280;46792;38.854;-9.384;2023-04-07T02:46:11;99150.91;;;16.54;43.98
60918;BME280;46792;38.854;-9.384;2023-04-07T02:48:12;99155.75;;;16.57;43.78
60918;BME280;46792;38.854;-9.384;2023-04-07T02:50:12;99158.97;;;16.59;43.55
60918;BME280;46792;38.854;-9.384;2023-04-07T02:52:31;99146.44;;;16.58;43.44
60918;BME280;46792;38.854;-9.384;2023-04-07T02:54:32;99154.28;;;16.60;44.14
60918;BME280;46792;38.854;-9.384;2023-04-07T02:56:33;99156.69;;;16.61;44.01
60918;BME280;46792;38.854;-9.384;2023-04-07T02:58:34;99160.56;;;16.60;43.87
60918;BME280;46792;38.854;-9.384;2023-04-07T03:00:34;99141.63;;;16.55;43.64
60918;BME280;46792;38.854;-9.384;2023-04-07T03:02:43;99153.50;;;16.59;43.22
60918;BME280;46792;38.854;-9.384;2023-04-07T03:04:44;99151.91;;;16.58;43.27
60918;BME280;46792;38.854;-9.384;2023-04-07T03:06:45;99153.31;;;16.55;43.08
60918;BME280;46792;38.854;-9.384;2023-04-07T03:08:48;99157.47;;;16.53;43.38
60918;BME280;46792;38.854;-9.384;2023-04-07T03:10:49;99152.16;;;16.48;43.54
60918;BME280;46792;38.854;-9.384;2023-04-07T03:12:56;99149.59;;;16.42;43.28
60918;BME280;46792;38.854;-9.384;2023-04-07T03:15:15;99153.53;;;16.36;43.20
60918;BME280;46792;38.854;-9.384;2023-04-07T03:17:20;99151.75;;;16.32;43.43
60918;BME280;46792;38.854;-9.384;2023-04-07T03:19:20;99157.31;;;16.26;43.47
60918;BME280;46792;38.854;-9.384;2023-04-07T03:21:23;99162.59;;;16.23;43.54
60918;BME280;46792;38.854;-9.384;2023-04-07T03:23:42;99161.31;;;16.20;43.56
60918;BME280;46792;38.854;-9.384;2023-04-07T03:25:43;99154.72;;;16.21;43.23
60918;BME280;46792;38.854;-9.384;2023-04-07T03:27:45;99146.25;;;16.23;43.19
60918;BME280;46792;38.854;-9.384;2023-04-07T03:29:48;99154.94;;;16.25;42.69
60918;BME280;46792;38.854;-9.384;2023-04-07T03:32:09;99147.09;;;16.32;42.28
60918;BME280;46792;38.854;-9.384;2023-04-07T03:34:11;99149.81;;;16.32;42.22
60918;BME280;46792;38.854;-9.384;2023-04-07T03:36:12;99141.31;;;16.25;42.67
60918;BME280;46792;38.854;-9.384;2023-04-07T03:38:17;99144.53;;;16.27;42.92
60918;BME280;46792;38.854;-9.384;2023-04-07T03:40:36;99153.31;;;16.24;43.01
60918;BME280;46792;38.854;-9.384;2023-04-07T03:42:37;99145.09;;;16.15;43.56
60918;BME280;46792;38.854;-9.384;2023-04-07T03:44:40;99144.72;;;16.08;44.30
60918;BME280;46792;38.854;-9.384;2023-04-07T03:46:41;99149.50;;;16.02;44.50
60918;BME280;46792;38.854;-9.384;2023-04-07T03:48:41;99152.03;;;15.99;44.69
60918;BME280;46792;38.854;-9.384;2023-04-07T03:50:44;99146.72;;;15.93;44.58
60918;BME280;46792;38.854;-9.384;2023-04-07T03:52:49;99147.81;;;15.92;44.59
60918;BME280;46792;38.854;-9.384;2023-04-07T03:54:58;99150.03;;;15.90;44.45
60918;BME280;46792;38.854;-9.384;2023-04-07T03:57:20;99143.81;;;15.90;44.66
60918;BME280;46792;38.854;-9.384;2023-04-07T03:59:22;99148.13;;;15.91;44.79
60918;BME280;46792;38.854;-9.384;2023-04-07T04:01:32;99139.16;;;15.90;44.81
60918;BME280;46792;38.854;-9.384;2023-04-07T04:03:40;99140.75;;;15.91;44.87
60918;BME280;46792;38.854;-9.384;2023-04-07T04:05:53;99141.44;;;15.97;44.47
60918;BME280;46792;38.854;-9.384;2023-04-07T04:08:00;99143.03;;;15.98;44.59
60918;BME280;46792;38.854;-9.384;2023-04-07T04:10:01;99142.75;;;16.00;44.68
60918;BME280;46792;38.854;-9.384;2023-04-07T04:12:07;99131.25;;;16.03;44.52
60918;BME280;46792;38.854;-9.384;2023-04-07T04:14:14;99138.09;;;16.00;44.87
60918;BME280;46792;38.854;-9.384;2023-04-07T04:16:20;99139.72;;;16.01;45.07
60918;BME280;46792;38.854;-9.384;2023-04-07T04:18:39;99140.31;;;15.98;45.33
60918;BME280;46792;38.854;-9.384;2023-04-07T04:20:58;99135.03;;;15.93;45.55
60918;BME280;46792;38.854;-9.384;2023-04-07T04:23:20;99129.69;;;15.88;45.77
60918;BME280;46792;38.854;-9.384;2023-04-07T04:25:21;99134.44;;;15.82;45.79
60918;BME280;46792;38.854;-9.384;2023-04-07T04:27:27;99140.50;;;15.79;46.10
60918;BME280;46792;38.854;-9.384;2023-04-07T04:29:36;99137.59;;;15.75;46.45
60918;BME280;46792;38.854;-9.384;2023-04-07T04:31:39;99132.88;;;15.67;47.48
60918;BME280;46792;38.854;-9.384;2023-04-07T04:33:41;99135.91;;;15.65;47.12
60918;BME280;46792;38.854;-9.384;2023-04-07T04:35:44;99134.28;;;15.64;47.16
60918;BME280;46792;38.854;-9.384;2023-04-07T04:37:48;99139.06;;;15.59;47.59
60918;BME280;46792;38.854;-9.384;2023-04-07T04:39:48;99139.97;;;15.54;47.54
60918;BME280;46792;38.854;-9.384;2023-04-07T04:41:53;99133.03;;;15.48;47.84
60918;BME280;46792;38.854;-9.384;2023-04-07T04:43:59;99137.78;;;15.42;48.32
60918;BME280;46792;38.854;-9.384;2023-04-07T04:46:01;99134.06;;;15.38;48.50
60918;BME280;46792;38.854;-9.384;2023-04-07T04:48:05;99143.34;;;15.37;48.50
60918;BME280;46792;38.854;-9.384;2023-04-07T04:50:25;99141.22;;;15.34;48.70
60918;BME280;46792;38.854;-9.384;2023-04-07T04:52:43;99142.97;;;15.30;48.63
60918;BME280;46792;38.854;-9.384;2023-04-07T04:54:53;99146.28;;;15.27;48.66
60918;BME280;46792;38.854;-9.384;2023-04-07T04:56:55;99141.97;;;15.26;48.83
60918;BME280;46792;38.854;-9.384;2023-04-07T04:58:57;99147.41;;;15.26;48.62
60918;BME280;46792;38.854;-9.384;2023-04-07T05:01:20;99140.16;;;15.21;48.64
60918;BME280;46792;38.854;-9.384;2023-04-07T05:03:27;99142.06;;;15.20;48.33
60918;BME280;46792;38.854;-9.384;2023-04-07T05:05:31;99145.59;;;15.21;48.27
60918;BME280;46792;38.854;-9.384;2023-04-07T05:07:32;99143.97;;;15.20;48.40
60918;BME280;46792;38.854;-9.384;2023-04-07T05:09:33;99151.63;;;15.18;48.48
60918;BME280;46792;38.854;-9.384;2023-04-07T05:11:33;99151.63;;;15.18;48.17
60918;BME280;46792;38.854;-9.384;2023-04-07T05:13:34;99152.16;;;15.20;48.29
60918;BME280;46792;38.854;-9.384;2023-04-07T05:15:54;99152.00;;;15.25;48.45
60918;BME280;46792;38.854;-9.384;2023-04-07T05:18:10;99158.97;;;15.31;48.33
60918;BME280;46792;38.854;-9.384;2023-04-07T05:20:11;99157.66;;;15.29;48.44
60918;BME280;46792;38.854;-9.384;2023-04-07T05:22:14;99165.94;;;15.24;49.27
60918;BME280;46792;38.854;-9.384;2023-04-07T05:24:27;99163.31;;;15.18;49.79
60918;BME280;46792;38.854;-9.384;2023-04-07T05:26:31;99153.75;;;15.07;50.49
60918;BME280;46792;38.854;-9.384;2023-04-07T05:28:32;99152.75;;;15.03;50.39
60918;BME280;46792;38.854;-9.384;2023-04-07T05:30:38;99158.69;;;15.05;50.34
60918;BME280;46792;38.854;-9.384;2023-04-07T05:32:39;99157.69;;;15.01;50.43
60918;BME280;46792;38.854;-9.384;2023-04-07T05:34:47;99149.13;;;14.94;50.47
60918;BME280;46792;38.854;-9.384;2023-04-07T05:36:50;99153.88;;;14.88;50.91
60918;BME280;46792;38.854;-9.384;2023-04-07T05:39:09;99149.84;;;14.85;50.88
60918;BME280;46792;38.854;-9.384;2023-04-07T05:47:10;99151.84;;;14.66;51.97
60918;BME280;46792;38.854;-9.384;2023-04-07T05:49:12;99157.53;;;14.64;52.43
60918;BME280;46792;38.854;-9.384;2023-04-07T05:51:12;99153.53;;;14.62;52.64
60918;BME280;46792;38.854;-9.384;2023-04-07T05:53:32;99156.94;;;14.53;53.49
60918;BME280;46792;38.854;-9.384;2023-04-07T05:55:51;99148.59;;;14.50;53.50
60918;BME280;46792;38.854;-9.384;2023-04-07T05:58:11;99149.56;;;14.40;54.40
60918;BME280;46792;38.854;-9.384;2023-04-07T06:00:14;99152.75;;;14.28;55.69
60918;BME280;46792;38.854;-9.384;2023-04-07T06:02:19;99145.94;;;14.30;55.88
60918;BME280;46792;38.854;-9.384;2023-04-07T06:04:21;99155.00;;;14.26;56.77
60918;BME280;46792;38.854;-9.384;2023-04-07T06:06:24;99155.47;;;14.28;56.91
60918;BME280;46792;38.854;-9.384;2023-04-07T06:08:26;99150.44;;;14.21;57.64
60918;BME280;46792;38.854;-9.384;2023-04-07T06:10:26;99153.06;;;14.26;57.87
60918;BME280;46792;38.854;-9.384;2023-04-07T06:12:27;99154.75;;;14.22;58.64
60918;BME280;46792;38.854;-9.384;2023-04-07T06:14:28;99157.56;;;14.17;59.45
60918;BME280;46792;38.854;-9.384;2023-04-07T06:16:47;99152.75;;;14.14;60.17
60918;BME280;46792;38.854;-9.384;2023-04-07T06:19:06;99164.31;;;14.20;60.51
60918;BME280;46792;38.854;-9.384;2023-04-07T06:21:07;99150.75;;;14.20;60.74
60918;BME280;46792;38.854;-9.384;2023-04-07T06:23:07;99146.78;;;14.12;61.17
60918;BME280;46792;38.854;-9.384;2023-04-07T06:25:08;99150.69;;;14.06;61.90
60918;BME280;46792;38.854;-9.384;2023-04-07T06:27:27;99149.59;;;14.07;62.27
60918;BME280;46792;38.854;-9.384;2023-04-07T06:29:31;99154.03;;;14.03;62.42
60918;BME280;46792;38.854;-9.384;2023-04-07T06:31:51;99162.69;;;13.86;63.27
60918;BME280;46792;38.854;-9.384;2023-04-07T06:34:10;99162.69;;;13.86;63.42
60918;BME280;46792;38.854;-9.384;2023-04-07T06:36:11;99160.34;;;13.79;63.74
60918;BME280;46792;38.854;-9.384;2023-04-07T06:38:12;99155.50;;;13.76;63.92
60918;BME280;46792;38.854;-9.384;2023-04-07T06:40:13;99159.41;;;13.69;64.20
60918;BME280;46792;38.854;-9.384;2023-04-07T06:42:13;99157.06;;;13.63;64.30
60918;BME280;46792;38.854;-9.384;2023-04-07T06:44:53;99157.88;;;13.63;64.15
60918;BME280;46792;38.854;-9.384;2023-04-07T06:46:53;99162.78;;;13.61;64.52
60918;BME280;46792;38.854;-9.384;2023-04-07T06:48:57;99166.56;;;13.60;64.12
60918;BME280;46792;38.854;-9.384;2023-04-07T06:51:17;99151.50;;;13.54;64.29
60918;BME280;46792;38.854;-9.384;2023-04-07T06:53:17;99164.59;;;13.66;63.95
60918;BME280;46792;38.854;-9.384;2023-04-07T06:55:18;99163.72;;;13.71;63.88
60918;BME280;46792;38.854;-9.384;2023-04-07T06:57:18;99158.78;;;13.73;63.84
60918;BME280;46792;38.854;-9.384;2023-04-07T06:59:38;99164.22;;;13.73;63.90
60918;BME280;46792;38.854;-9.384;2023-04-07T07:01:38;99166.88;;;13.78;63.84
60918;BME280;46792;38.854;-9.384;2023-04-07T07:03:39;99165.47;;;13.80;63.59
60918;BME280;46792;38.854;-9.384;2023-04-07T07:06:14;99174.03;;;13.88;63.20
60918;BME280;46792;38.854;-9.384;2023-04-07T07:08:14;99171.34;;;13.88;62.88
60918;BME280;46792;38.854;-9.384;2023-04-07T07:10:34;99169.06;;;13.95;62.85
60918;BME280;46792;38.854;-9.384;2023-04-07T07:12:34;99186.06;;;14.01;62.68
60918;BME280;46792;38.854;-9.384;2023-04-07T07:14:35;99175.34;;;14.09;63.07
60918;BME280;46792;38.854;-9.384;2023-04-07T07:16:36;99183.78;;;14.08;63.46
60918;BME280;46792;38.854;-9.384;2023-04-07T07:18:54;99187.81;;;14.10;63.96
60918;BME280;46792;38.854;-9.384;2023-04-07T07:20:55;99196.16;;;14.14;64.09
60918;BME280;46792;38.854;-9.384;2023-04-07T07:22:56;99190.06;;;14.22;64.42
60918;BME280;46792;38.854;-9.384;2023-04-07T07:24:57;99194.00;;;14.30;64.74
60918;BME280;46792;38.854;-9.384;2023-04-07T07:27:16;99196.19;;;14.28;65.28
60918;BME280;46792;38.854;-9.384;2023-04-07T07:29:36;99187.78;;;14.29;66.05
60918;BME280;46792;38.854;-9.384;2023-04-07T07:34:33;99191.75;;;14.51;67.84
60918;BME280;46792;38.854;-9.384;2023-04-07T07:36:34;99193.34;;;14.52;68.37
60918;BME280;46792;38.854;-9.384;2023-04-07T07:38:35;99181.09;;;14.55;69.37
60918;BME280;46792;38.854;-9.384;2023-04-07T07:40:35;99189.28;;;14.69;69.96
60918;BME280;46792;38.854;-9.384;2023-04-07T07:42:36;99198.34;;;14.78;71.11
60918;BME280;46792;38.854;-9.384;2023-04-07T07:44:37;99193.94;;;14.82;71.44
60918;BME280;46792;38.854;-9.384;2023-04-07T07:46:56;99200.78;;;14.94;72.18
60918;BME280;46792;38.854;-9.384;2023-04-07T07:48:57;99204.91;;;15.05;73.63
60918;BME280;46792;38.854;-9.384;2023-04-07T07:50:58;99207.72;;;15.14;73.94
60918;BME280;46792;38.854;-9.384;2023-04-07T07:52:58;99212.16;;;15.38;75.51
60918;BME280;46792;38.854;-9.384;2023-04-07T07:54:59;99205.78;;;15.42;75.89
60918;BME280;46792;38.854;-9.384;2023-04-07T07:56:59;99209.19;;;15.48;76.47
60918;BME280;46792;38.854;-9.384;2023-04-07T07:59:03;99212.81;;;15.57;76.92
60918;BME280;46792;38.854;-9.384;2023-04-07T08:01:05;99218.22;;;15.71;77.28
60918;BME280;46792;38.854;-9.384;2023-04-07T08:03:06;99214.78;;;15.79;77.19
60918;BME280;46792;38.854;-9.384;2023-04-07T08:05:07;99210.25;;;15.89;77.66
60918;BME280;46792;38.854;-9.384;2023-04-07T08:07:07;99210.00;;;15.99;77.57
60918;BME280;46792;38.854;-9.384;2023-04-07T08:09:08;99211.69;;;16.09;77.77
60918;BME280;46792;38.854;-9.384;2023-04-07T08:11:09;99216.75;;;16.24;78.52
60918;BME280;46792;38.854;-9.384;2023-04-07T08:13:10;99215.25;;;16.41;78.82
60918;BME280;46792;38.854;-9.384;2023-04-07T08:15:10;99213.91;;;16.52;78.99
60918;BME280;46792;38.854;-9.384;2023-04-07T08:17:11;99215.69;;;16.57;79.02
60918;BME280;46792;38.854;-9.384;2023-04-07T08:19:12;99218.34;;;16.80;78.95
60918;BME280;46792;38.854;-9.384;2023-04-07T08:21:31;99213.13;;;16.92;78.36
60918;BME280;46792;38.854;-9.384;2023-04-07T08:23:32;99211.09;;;16.98;77.95
60918;BME280;46792;38.854;-9.384;2023-04-07T08:25:51;99222.03;;;17.07;77.73
60918;BME280;46792;38.854;-9.384;2023-04-07T08:28:10;99221.28;;;17.24;76.15
60918;BME280;46792;38.854;-9.384;2023-04-07T08:30:11;99213.78;;;17.38;75.72
60918;BME280;46792;38.854;-9.384;2023-04-07T08:32:12;99213.31;;;17.45;73.34
60918;BME280;46792;38.854;-9.384;2023-04-07T08:34:13;99217.50;;;17.51;72.05
60918;BME280;46792;38.854;-9.384;2023-04-07T08:36:14;99221.22;;;17.64;70.96
60918;BME280;46792;38.854;-9.384;2023-04-07T08:38:15;99224.75;;;17.73;70.16
60918;BME280;46792;38.854;-9.384;2023-04-07T08:40:16;99227.78;;;17.89;68.33
60918;BME280;46792;38.854;-9.384;2023-04-07T08:42:18;99233.28;;;17.98;67.91
60918;BME280;46792;38.854;-9.384;2023-04-07T08:44:20;99238.28;;;18.05;66.90
60918;BME280;46792;38.854;-9.384;2023-04-07T08:46:24;99236.50;;;18.18;66.30
60918;BME280;46792;38.854;-9.384;2023-04-07T08:48:45;99238.88;;;18.37;65.31
60918;BME280;46792;38.854;-9.384;2023-04-07T08:50:50;99247.06;;;18.54;64.34
60918;BME280;46792;38.854;-9.384;2023-04-07T08:55:30;99251.03;;;18.83;55.08
60918;BME280;46792;38.854;-9.384;2023-04-07T08:57:33;99254.69;;;18.96;52.38
60918;BME280;46792;38.854;-9.384;2023-04-07T08:59:33;99248.06;;;19.06;51.68
60918;BME280;46792;38.854;-9.384;2023-04-07T09:01:35;99247.56;;;19.13;51.72
60918;BME280;46792;38.854;-9.384;2023-04-07T09:03:39;99251.06;;;19.22;50.83
60918;BME280;46792;38.854;-9.384;2023-04-07T09:05:40;99254.03;;;19.38;50.90
60918;BME280;46792;38.854;-9.384;2023-04-07T09:07:42;99253.69;;;19.49;50.93
60918;BME280;46792;38.854;-9.384;2023-04-07T09:09:43;99258.75;;;19.59;50.93
60918;BME280;46792;38.854;-9.384;2023-04-07T09:11:44;99266.91;;;19.68;52.08
60918;BME280;46792;38.854;-9.384;2023-04-07T09:13:44;99265.06;;;19.81;54.17
60918;BME280;46792;38.854;-9.384;2023-04-07T09:15:46;99265.34;;;19.88;54.82
60918;BME280;46792;38.854;-9.384;2023-04-07T09:18:05;99263.38;;;19.97;55.25
60918;BME280;46792;38.854;-9.384;2023-04-07T09:20:07;99272.25;;;19.94;55.20
60918;BME280;46792;38.854;-9.384;2023-04-07T09:22:36;99269.75;;;20.01;55.31
60918;BME280;46792;38.854;-9.384;2023-04-07T09:24:37;99277.66;;;20.03;54.58
60918;BME280;46792;38.854;-9.384;2023-04-07T09:26:38;99273.09;;;20.07;54.41
60918;BME280;46792;38.854;-9.384;2023-04-07T09:28:42;99266.38;;;20.04;54.08
60918;BME280;46792;38.854;-9.384;2023-04-07T09:30:51;99266.66;;;20.12;51.92
60918;BME280;46792;38.854;-9.384;2023-04-07T09:32:52;99275.59;;;20.21;47.53
60918;BME280;46792;38.854;-9.384;2023-04-07T09:34:58;99277.69;;;20.36;45.63
60918;BME280;46792;38.854;-9.384;2023-04-07T09:37:21;99267.44;;;20.46;45.44
60918;BME280;46792;38.854;-9.384;2023-04-07T09:39:22;99265.31;;;20.51;43.85
60918;BME280;46792;38.854;-9.384;2023-04-07T09:41:26;99263.41;;;20.64;43.69
60918;BME280;46792;38.854;-9.384;2023-04-07T09:43:45;99274.28;;;20.73;42.30
60918;BME280;46792;38.854;-9.384;2023-04-07T09:45:46;99265.53;;;20.80;41.12
60918;BME280;46792;38.854;-9.384;2023-04-07T09:47:47;99272.88;;;20.88;41.73
60918;BME280;46792;38.854;-9.384;2023-04-07T09:49:49;99270.34;;;20.95;40.82
60918;BME280;46792;38.854;-9.384;2023-04-07T09:52:02;99272.31;;;21.07;40.12
60918;BME280;46792;38.854;-9.384;2023-04-07T09:54:05;99273.72;;;21.14;39.12
60918;BME280;46792;38.854;-9.384;2023-04-07T09:56:08;99283.19;;;21.28;40.02
60918;BME280;46792;38.854;-9.384;2023-04-07T10:00:48;99274.41;;;21.48;38.94
60918;BME280;46792;38.854;-9.384;2023-04-07T10:02:49;99273.56;;;21.60;38.69
60918;BME280;46792;38.854;-9.384;2023-04-07T10:04:50;99275.44;;;21.68;38.46
60918;BME280;46792;38.854;-9.384;2023-04-07T10:07:10;99278.16;;;21.80;38.72
60918;BME280;46792;38.854;-9.384;2023-04-07T10:09:10;99282.75;;;21.88;38.72
60918;BME280;46792;38.854;-9.384;2023-04-07T10:11:11;99285.34;;;21.97;38.73
60918;BME280;46792;38.854;-9.384;2023-04-07T10:13:12;99275.81;;;22.07;38.30
60918;BME280;46792;38.854;-9.384;2023-04-07T10:18:09;99285.31;;;22.38;37.68
60918;BME280;46792;38.854;-9.384;2023-04-07T10:22:31;99285.31;;;22.51;37.64
60918;BME280;46792;38.854;-9.384;2023-04-07T10:25:01;99293.25;;;22.68;37.33
60918;BME280;46792;38.854;-9.384;2023-04-07T10:27:08;99287.47;;;22.73;35.91
60918;BME280;46792;38.854;-9.384;2023-04-07T10:29:12;99291.13;;;22.77;35.60
60918;BME280;46792;38.854;-9.384;2023-04-07T10:31:15;99296.03;;;22.84;35.43
60918;BME280;46792;38.854;-9.384;2023-04-07T10:33:16;99284.94;;;22.97;35.13
60918;BME280;46792;38.854;-9.384;2023-04-07T10:36:02;99293.53;;;23.11;33.52
60918;BME280;46792;38.854;-9.384;2023-04-07T10:38:21;99288.16;;;23.15;34.06
60918;BME280;46792;38.854;-9.384;2023-04-07T10:40:41;99288.94;;;23.15;33.77
60918;BME280;46792;38.854;-9.384;2023-04-07T10:43:01;99285.59;;;23.22;34.44
60918;BME280;46792;38.854;-9.384;2023-04-07T10:45:02;99287.28;;;23.43;33.58
60918;BME280;46792;38.854;-9.384;2023-04-07T10:47:04;99286.81;;;23.41;31.85
60918;BME280;46792;38.854;-9.384;2023-04-07T10:49:25;99294.28;;;23.56;32.45
60918;BME280;46792;38.854;-9.384;2023-04-07T10:54:15;99292.56;;;23.67;32.06
60918;BME280;46792;38.854;-9.384;2023-04-07T10:56:19;99290.41;;;23.77;32.50
60918;BME280;46792;38.854;-9.384;2023-04-07T10:58:22;99296.88;;;23.84;31.59
60918;BME280;46792;38.854;-9.384;2023-04-07T11:00:26;99296.63;;;23.90;31.39
60918;BME280;46792;38.854;-9.384;2023-04-07T11:02:45;99293.09;;;24.09;30.77
60918;BME280;46792;38.854;-9.384;2023-04-07T11:04:46;99289.31;;;24.17;31.51
60918;BME280;46792;38.854;-9.384;2023-04-07T11:06:47;99290.91;;;24.18;31.53
60918;BME280;46792;38.854;-9.384;2023-04-07T11:09:18;99287.81;;;24.20;30.42
60918;BME280;46792;38.854;-9.384;2023-04-07T11:11:39;99284.84;;;24.28;30.48
60918;BME280;46792;38.854;-9.384;2023-04-07T11:13:45;99285.41;;;24.38;31.09
60918;BME280;46792;38.854;-9.384;2023-04-07T11:15:48;99283.53;;;24.42;30.73
60918;BME280;46792;38.854;-9.384;2023-04-07T11:20:07;99283.13;;;24.63;30.66
60918;BME280;46792;38.854;-9.384;2023-04-07T11:22:15;99286.84;;;24.71;31.04
60918;BME280;46792;38.854;-9.384;2023-04-07T11:24:34;99280.22;;;24.75;30.44
60918;BME280;46792;38.854;-9.384;2023-04-07T11:26:39;99281.38;;;24.74;30.36
60918;BME280;46792;38.854;-9.384;2023-04-07T11:28:51;99280.28;;;24.79;29.80
60918;BME280;46792;38.854;-9.384;2023-04-07T11:30:53;99276.69;;;24.55;29.54
60918;BME280;46792;38.854;-9.384;2023-04-07T11:32:55;99273.97;;;24.59;29.92